createdAt,value
2022-11-21T00:01:16.852Z,0.70
2022-11-21T00:03:44.023Z,0.80
2022-11-21T00:06:11.323Z,0.70
2022-11-21T00:08:38.512Z,0.70
2022-11-21T00:11:05.757Z,0.70
2022-11-21T00:13:33.882Z,0.50
2022-11-21T00:16:06.502Z,0.50
2022-11-21T00:18:35.472Z,0.50
2022-11-21T00:21:15.285Z,0.40
2022-11-21T00:23:43.864Z,0.30
2022-11-21T00:26:14.011Z,0.30
2022-11-21T00:28:42.015Z,0.20
2022-11-21T00:31:09.820Z,0.10
2022-11-21T00:33:39.258Z,0.20
2022-11-21T00:36:10.258Z,0.20
2022-11-21T00:38:38.345Z,0.00
2022-11-21T00:41:06.417Z,0.10
2022-11-21T00:43:35.366Z,-0.10
2022-11-21T00:46:03.491Z,-0.20
2022-11-21T00:48:32.460Z,-0.10
2022-11-21T00:51:02.734Z,-0.20
2022-11-21T00:53:30.569Z,-0.10
2022-11-21T00:55:58.059Z,-0.20
2022-11-21T00:58:25.884Z,-0.10
2022-11-21T01:00:53.217Z,0.00
2022-11-21T01:03:20.778Z,-0.10
2022-11-21T01:05:48.022Z,-0.30
2022-11-21T01:08:15.583Z,-0.30
2022-11-21T01:10:42.723Z,-0.40
2022-11-21T01:13:10.016Z,-0.30
2022-11-21T01:15:37.135Z,-0.30
2022-11-21T01:18:04.605Z,-0.30
2022-11-21T01:20:31.779Z,-0.40
2022-11-21T01:22:58.992Z,-0.40
2022-11-21T01:25:26.239Z,-0.50
2022-11-21T01:27:53.449Z,-0.50
2022-11-21T01:30:20.578Z,-0.40
2022-11-21T01:32:50.893Z,-0.50
2022-11-21T01:35:19.777Z,-0.60
2022-11-21T01:37:50.498Z,-0.60
2022-11-21T01:40:17.903Z,-0.60
2022-11-21T01:42:55.024Z,-0.60
2022-11-21T01:45:54.524Z,-0.50
2022-11-21T01:48:28.958Z,-0.50
2022-11-21T01:51:01.234Z,-0.50
2022-11-21T01:53:28.528Z,-0.50
2022-11-21T01:55:55.723Z,-0.40
2022-11-21T01:58:24.133Z,-0.40
2022-11-21T02:00:52.185Z,-0.40
2022-11-21T02:03:25.764Z,-0.40
2022-11-21T02:05:55.465Z,-0.30
2022-11-21T02:08:25.393Z,-0.30
2022-11-21T02:11:00.493Z,-0.30
2022-11-21T02:13:28.749Z,-0.40
2022-11-21T02:15:55.908Z,-0.40
2022-11-21T02:18:23.198Z,-0.40
2022-11-21T02:20:58.803Z,-0.40
2022-11-21T02:24:08.109Z,-0.40
2022-11-21T02:26:36.568Z,-0.50
2022-11-21T02:29:04.117Z,-0.50
2022-11-21T02:31:31.318Z,-0.60
2022-11-21T02:33:59.471Z,-0.80
2022-11-21T02:36:42.113Z,-0.80
2022-11-21T02:39:19.833Z,-0.60
2022-11-21T02:41:56.935Z,-0.70
2022-11-21T02:44:40.157Z,-0.70
2022-11-21T02:47:07.413Z,-0.90
2022-11-21T02:50:10.349Z,-0.80
2022-11-21T02:52:37.597Z,-0.90
2022-11-21T02:55:06.082Z,-0.90
2022-11-21T02:57:33.399Z,-0.90
2022-11-21T03:00:00.599Z,-0.90
2022-11-21T03:02:27.708Z,-1.00
2022-11-21T03:04:56.183Z,-1.00
2022-11-21T03:07:23.433Z,-0.90
2022-11-21T03:09:51.526Z,-0.90
2022-11-21T03:12:18.912Z,-0.90
2022-11-21T03:14:46.133Z,-0.80
2022-11-21T03:17:14.432Z,-0.70
2022-11-21T03:19:41.688Z,-0.70
2022-11-21T03:22:08.908Z,-0.70
2022-11-21T03:24:37.068Z,-0.60
2022-11-21T03:27:04.337Z,-0.50
2022-11-21T03:29:31.733Z,-0.40
2022-11-21T03:31:58.853Z,-0.30
2022-11-21T03:34:26.454Z,-0.20
2022-11-21T03:36:54.283Z,-0.10
2022-11-21T03:39:21.508Z,-0.10
2022-11-21T03:41:48.714Z,-0.10
2022-11-21T03:44:16.521Z,0.00
2022-11-21T03:46:47.677Z,-0.10
2022-11-21T03:49:16.843Z,-0.10
2022-11-21T03:51:44.683Z,-0.20
2022-11-21T03:54:12.449Z,-0.20
2022-11-21T03:56:42.348Z,0.00
2022-11-21T03:59:09.526Z,0.10
2022-11-21T04:01:37.139Z,0.00
2022-11-21T04:04:05.893Z,0.20
2022-11-21T04:06:33.097Z,0.20
2022-11-21T04:09:00.273Z,0.30
2022-11-21T04:11:27.392Z,0.40
2022-11-21T04:13:54.575Z,0.40
2022-11-21T04:16:21.713Z,0.40
2022-11-21T04:18:49.898Z,0.50
2022-11-21T04:21:17.042Z,0.50
2022-11-21T04:23:44.290Z,0.50
2022-11-21T04:26:11.751Z,0.50
2022-11-21T04:28:39.002Z,0.50
2022-11-21T04:31:10.683Z,0.50
2022-11-21T04:33:39.649Z,0.50
2022-11-21T04:36:08.491Z,0.50
2022-11-21T04:38:35.875Z,0.60
2022-11-21T04:41:03.546Z,0.60
2022-11-21T04:43:31.171Z,0.70
2022-11-21T04:45:58.262Z,0.70
2022-11-21T04:48:25.432Z,0.70
2022-11-21T04:50:52.559Z,0.70
2022-11-21T04:53:19.823Z,0.70
2022-11-21T04:55:46.955Z,0.80
2022-11-21T04:58:14.574Z,0.70
2022-11-21T05:00:41.661Z,0.70
2022-11-21T05:03:08.892Z,0.70
2022-11-21T05:05:37.183Z,0.70
2022-11-21T05:08:04.488Z,0.60
2022-11-21T05:10:51.700Z,0.70
2022-11-21T05:13:21.498Z,0.70
2022-11-21T05:15:51.949Z,0.60
2022-11-21T05:18:20.151Z,0.60
2022-11-21T05:20:47.308Z,0.60
2022-11-21T05:23:14.497Z,0.70
2022-11-21T05:25:41.730Z,0.70
2022-11-21T05:28:10.434Z,0.70
2022-11-21T05:30:38.067Z,0.70
2022-11-21T05:33:05.551Z,0.70
2022-11-21T05:35:32.665Z,0.70
2022-11-21T05:38:00.015Z,0.70
2022-11-21T05:40:27.193Z,0.70
2022-11-21T05:43:12.943Z,0.70
2022-11-21T05:45:40.435Z,0.70
2022-11-21T05:48:08.048Z,0.70
2022-11-21T05:50:36.552Z,0.70
2022-11-21T05:53:05.454Z,0.80
2022-11-21T05:55:35.659Z,0.80
2022-11-21T05:58:03.149Z,0.80
2022-11-21T06:00:30.761Z,0.80
2022-11-21T06:03:16.675Z,0.80
2022-11-21T06:05:43.976Z,0.80
2022-11-21T06:08:11.167Z,0.90
2022-11-21T06:10:38.367Z,0.90
2022-11-21T06:13:22.412Z,0.90
2022-11-21T06:16:02.666Z,0.90
2022-11-21T06:18:33.852Z,0.90
2022-11-21T06:21:05.374Z,0.90
2022-11-21T06:23:33.646Z,0.80
2022-11-21T06:26:04.083Z,0.80
2022-11-21T06:28:36.811Z,0.80
2022-11-21T06:31:09.248Z,0.80
2022-11-21T06:33:37.436Z,0.70
2022-11-21T06:36:08.267Z,0.70
2022-11-21T06:38:35.971Z,0.80
2022-11-21T06:41:13.021Z,0.80
2022-11-21T06:43:41.629Z,0.90
2022-11-21T06:46:10.706Z,0.90
2022-11-21T06:48:38.915Z,0.90
2022-11-21T06:51:16.601Z,0.90
2022-11-21T06:53:44.351Z,1.00
2022-11-21T06:56:11.951Z,1.00
2022-11-21T06:58:39.075Z,1.00
2022-11-21T07:01:09.018Z,1.10
2022-11-21T07:03:36.927Z,1.20
2022-11-21T07:06:04.582Z,1.20
2022-11-21T07:08:34.127Z,1.30
2022-11-21T07:11:24.179Z,1.30
2022-11-21T07:13:50.311Z,1.30
2022-11-21T07:16:18.476Z,1.30
2022-11-21T07:18:45.716Z,1.30
2022-11-21T07:21:13.864Z,1.40
2022-11-21T07:23:41.036Z,1.50
2022-11-21T07:26:10.521Z,1.50
2022-11-21T07:28:37.786Z,1.50
2022-11-21T07:31:09.999Z,1.60
2022-11-21T07:33:39.107Z,1.70
2022-11-21T07:36:07.379Z,1.70
2022-11-21T07:38:34.542Z,1.80
2022-11-21T07:41:01.748Z,1.90
2022-11-21T07:43:28.983Z,1.90
2022-11-21T07:45:56.724Z,1.90
2022-11-21T07:48:23.978Z,2.10
2022-11-21T07:50:51.176Z,2.20
2022-11-21T07:53:18.388Z,2.20
2022-11-21T07:55:45.501Z,2.30
2022-11-21T07:58:15.503Z,2.30
2022-11-21T08:00:43.505Z,2.40
2022-11-21T08:03:13.156Z,2.40
2022-11-21T08:05:43.099Z,2.50
2022-11-21T08:08:12.088Z,2.60
2022-11-21T08:10:44.558Z,2.60
2022-11-21T08:13:12.704Z,2.70
2022-11-21T08:15:40.282Z,2.70
2022-11-21T08:18:09.141Z,2.80
2022-11-21T08:20:36.500Z,2.90
2022-11-21T08:23:04.339Z,2.90
2022-11-21T08:25:31.774Z,2.90
2022-11-21T08:27:59.390Z,2.90
2022-11-21T08:30:26.571Z,3.00
2022-11-21T08:32:53.850Z,3.10
2022-11-21T08:35:21.119Z,3.20
2022-11-21T08:37:48.201Z,3.10
2022-11-21T08:40:15.649Z,3.20
2022-11-21T08:42:42.700Z,3.30
2022-11-21T08:45:10.295Z,3.40
2022-11-21T08:47:37.430Z,3.50
2022-11-21T08:50:08.808Z,3.50
2022-11-21T08:52:37.075Z,3.70
2022-11-21T08:55:04.274Z,3.80
2022-11-21T08:57:31.826Z,3.90
2022-11-21T08:59:58.974Z,4.00
2022-11-21T09:02:26.415Z,4.20
2022-11-21T09:04:53.654Z,4.20
2022-11-21T09:07:20.898Z,4.30
2022-11-21T09:09:48.135Z,4.30
2022-11-21T09:12:15.355Z,4.40
2022-11-21T09:15:00.920Z,4.30
2022-11-21T09:17:47.883Z,4.40
2022-11-21T09:20:15.381Z,4.40
2022-11-21T09:22:42.504Z,4.50
2022-11-21T09:25:09.759Z,4.60
2022-11-21T09:27:36.855Z,4.70
2022-11-21T09:30:04.454Z,4.70
2022-11-21T09:32:31.829Z,4.80
2022-11-21T09:34:59.081Z,5.00
2022-11-21T09:37:27.364Z,5.10
2022-11-21T09:39:54.476Z,5.20
2022-11-21T09:42:34.110Z,5.30
2022-11-21T09:45:07.523Z,5.50
2022-11-21T09:47:46.769Z,5.70
2022-11-21T09:50:13.891Z,5.90
2022-11-21T09:53:05.434Z,6.30
2022-11-21T09:55:35.412Z,6.50
2022-11-21T09:58:18.379Z,6.90
2022-11-21T10:00:45.527Z,7.10
2022-11-21T10:03:16.722Z,7.20
2022-11-21T10:05:50.064Z,7.30
2022-11-21T10:08:32.262Z,7.50
2022-11-21T10:11:30.668Z,7.60
2022-11-21T10:14:30.652Z,7.90
2022-11-21T10:17:40.856Z,8.10
2022-11-21T10:20:29.748Z,8.00
2022-11-21T10:23:15.055Z,8.20
2022-11-21T10:25:51.351Z,8.30
2022-11-21T10:28:28.236Z,8.50
2022-11-21T10:30:58.996Z,8.60
2022-11-21T10:33:32.681Z,8.70
2022-11-21T10:36:05.626Z,8.60
2022-11-21T10:38:39.089Z,8.70
2022-11-21T10:41:38.096Z,8.60
2022-11-21T10:44:46.918Z,8.70
2022-11-21T10:47:29.106Z,8.90
2022-11-21T10:50:18.011Z,9.20
2022-11-21T10:52:59.636Z,9.30
2022-11-21T10:55:27.876Z,9.40
2022-11-21T10:57:55.454Z,9.40
2022-11-21T11:00:25.628Z,9.30
2022-11-21T11:02:56.040Z,9.00
2022-11-21T11:05:28.523Z,9.00
2022-11-21T11:08:15.469Z,8.80
2022-11-21T11:10:43.531Z,8.50
2022-11-21T11:13:50.134Z,8.80
2022-11-21T11:16:21.817Z,8.80
2022-11-21T11:19:15.697Z,9.00
2022-11-21T11:21:45.422Z,8.90
2022-11-21T11:24:13.673Z,9.00
2022-11-21T11:26:49.935Z,9.30
2022-11-21T11:29:26.336Z,9.50
2022-11-21T11:31:56.357Z,9.40
2022-11-21T11:34:45.079Z,9.40
2022-11-21T11:37:40.362Z,9.30
2022-11-21T11:40:15.109Z,9.00
2022-11-21T11:43:07.718Z,8.80
2022-11-21T11:46:02.484Z,8.70
2022-11-21T11:48:29.703Z,8.50
2022-11-21T11:51:04.439Z,8.20
2022-11-21T11:53:41.188Z,8.00
2022-11-21T11:56:24.197Z,8.00
2022-11-21T11:59:02.330Z,8.00
2022-11-21T12:02:18.385Z,7.90
2022-11-21T12:04:55.227Z,7.70
2022-11-21T12:08:27.689Z,7.50
2022-11-21T12:10:27.715Z,7.50
2022-11-21T12:13:16.122Z,7.50
2022-11-21T12:15:50.941Z,7.50
2022-11-21T12:18:21.133Z,7.40
2022-11-21T12:21:03.284Z,7.40
2022-11-21T12:23:53.790Z,7.70
2022-11-21T12:26:34.962Z,7.80
2022-11-21T12:29:30.430Z,7.80
2022-11-21T12:32:04.424Z,7.60
2022-11-21T12:34:47.929Z,7.50
2022-11-21T12:37:21.819Z,7.60
2022-11-21T12:40:20.979Z,7.60
2022-11-21T12:42:50.902Z,7.40
2022-11-21T12:45:42.648Z,7.30
2022-11-21T12:48:54.939Z,7.20
2022-11-21T12:51:43.500Z,7.20
2022-11-21T12:54:33.763Z,7.30
2022-11-21T12:57:15.571Z,7.40
2022-11-21T13:00:09.170Z,7.50
2022-11-21T13:03:17.727Z,7.50
2022-11-21T13:05:48.243Z,7.40
2022-11-21T13:08:24.770Z,7.40
2022-11-21T13:11:38.683Z,7.40
2022-11-21T13:14:25.574Z,7.40
2022-11-21T13:17:28.266Z,7.30
2022-11-21T13:20:07.444Z,7.20
2022-11-21T13:22:37.662Z,7.10
2022-11-21T13:25:25.079Z,7.10
2022-11-21T13:27:54.807Z,7.10
2022-11-21T13:30:24.717Z,7.20
2022-11-21T13:32:56.329Z,7.20
2022-11-21T13:35:23.594Z,7.20
2022-11-21T13:38:02.123Z,7.30
2022-11-21T13:40:30.156Z,7.30
2022-11-21T13:43:31.303Z,7.30
2022-11-21T13:45:59.320Z,7.20
2022-11-21T13:48:30.707Z,7.20
2022-11-21T13:51:00.937Z,7.20
2022-11-21T13:53:37.246Z,7.20
2022-11-21T13:56:26.531Z,7.20
2022-11-21T13:58:57.490Z,7.20
2022-11-21T14:01:42.775Z,7.30
2022-11-21T14:04:19.267Z,7.20
2022-11-21T14:06:48.312Z,7.20
2022-11-21T14:09:25.806Z,7.00
2022-11-21T14:12:29.989Z,7.00
2022-11-21T14:15:00.105Z,6.90
2022-11-21T14:17:47.372Z,7.00
2022-11-21T14:20:57.508Z,7.00
2022-11-21T14:23:27.000Z,6.90
2022-11-21T14:25:59.942Z,7.00
2022-11-21T14:28:32.505Z,7.00
2022-11-21T14:31:07.592Z,6.90
2022-11-21T14:33:36.589Z,7.00
2022-11-21T14:36:04.721Z,7.00
2022-11-21T14:38:36.629Z,6.90
2022-11-21T14:41:25.997Z,6.80
2022-11-21T14:43:59.197Z,6.70
2022-11-21T14:46:31.857Z,6.70
2022-11-21T14:49:16.318Z,6.60
2022-11-21T14:52:03.735Z,6.50
2022-11-21T14:54:46.807Z,6.40
2022-11-21T14:57:32.498Z,6.40
2022-11-21T14:59:59.898Z,6.30
2022-11-21T15:02:32.944Z,6.30
2022-11-21T15:05:13.198Z,6.20
2022-11-21T15:07:47.238Z,6.10
2022-11-21T15:10:30.712Z,6.00
2022-11-21T15:13:13.738Z,6.00
2022-11-21T15:15:50.529Z,5.90
2022-11-21T15:18:30.700Z,5.80
2022-11-21T15:21:01.770Z,5.70
2022-11-21T15:23:40.473Z,5.70
2022-11-21T15:26:29.087Z,5.50
2022-11-21T15:28:58.361Z,5.40
2022-11-21T15:31:25.975Z,5.30
2022-11-21T15:37:04.765Z,5.30
2022-11-21T15:39:34.410Z,5.30
2022-11-21T15:42:32.850Z,5.20
2022-11-21T15:45:20.537Z,5.10
2022-11-21T15:47:49.702Z,5.00
2022-11-21T15:50:17.654Z,5.00
2022-11-21T15:52:50.021Z,4.90
2022-11-21T15:55:21.478Z,4.80
2022-11-21T15:57:48.998Z,4.90
2022-11-21T16:00:17.482Z,4.90
2022-11-21T16:02:44.671Z,4.70
2022-11-21T16:05:14.103Z,4.70
2022-11-21T16:07:42.396Z,4.70
2022-11-21T16:10:18.390Z,4.60
2022-11-21T16:12:50.571Z,4.50
2022-11-21T16:15:17.660Z,4.40
2022-11-21T16:17:47.452Z,4.30
2022-11-21T16:20:15.596Z,4.00
2022-11-21T16:22:47.183Z,4.00
2022-11-21T16:25:16.502Z,3.90
2022-11-21T16:27:43.844Z,3.70
2022-11-21T16:30:12.775Z,3.60
2022-11-21T16:32:39.884Z,3.50
2022-11-21T16:35:07.476Z,3.30
2022-11-21T16:37:34.745Z,3.20
2022-11-21T16:40:02.143Z,3.30
2022-11-21T16:42:29.326Z,3.20
2022-11-21T16:44:56.557Z,3.10
2022-11-21T16:47:23.720Z,3.00
2022-11-21T16:49:51.041Z,2.90
2022-11-21T16:52:18.328Z,2.50
2022-11-21T16:54:47.243Z,2.40
2022-11-21T16:57:14.544Z,2.20
2022-11-21T16:59:41.887Z,2.30
2022-11-21T17:02:12.192Z,2.30
2022-11-21T17:04:40.487Z,2.30
2022-11-21T17:07:07.734Z,2.50
2022-11-21T17:09:35.196Z,2.30
2022-11-21T17:12:02.287Z,2.10
2022-11-21T17:14:29.758Z,2.10
2022-11-21T17:16:59.616Z,2.30
2022-11-21T17:19:26.840Z,2.10
2022-11-21T17:21:53.980Z,2.00
2022-11-21T17:24:21.251Z,2.00
2022-11-21T17:26:48.334Z,2.00
2022-11-21T17:29:15.712Z,1.90
2022-11-21T17:31:42.977Z,1.90
2022-11-21T17:34:10.352Z,1.90
2022-11-21T17:36:37.510Z,1.80
2022-11-21T17:39:04.705Z,1.80
2022-11-21T17:41:31.785Z,1.80
2022-11-21T17:43:59.995Z,1.80
2022-11-21T17:46:28.785Z,1.80
2022-11-21T17:48:58.805Z,1.80
2022-11-21T17:51:30.138Z,1.70
2022-11-21T17:53:58.102Z,1.70
2022-11-21T17:56:27.676Z,1.70
2022-11-21T17:58:55.920Z,1.60
2022-11-21T18:01:23.554Z,1.60
2022-11-21T18:04:00.429Z,1.60
2022-11-21T18:06:38.851Z,1.40
2022-11-21T18:09:10.528Z,1.20
2022-11-21T18:11:40.234Z,1.10
2022-11-21T18:14:10.431Z,1.20
2022-11-21T18:16:39.784Z,1.20
2022-11-21T18:19:11.455Z,1.20
2022-11-21T18:21:38.705Z,1.10
2022-11-21T18:24:06.300Z,1.00
2022-11-21T18:26:36.176Z,1.00
2022-11-21T18:29:35.579Z,0.90
2022-11-21T18:31:53.258Z,0.70
2022-11-21T18:34:20.760Z,0.80
2022-11-21T18:36:47.889Z,0.80
2022-11-21T18:39:16.059Z,0.80
2022-11-21T18:41:44.219Z,0.90
2022-11-21T18:44:17.056Z,0.90
2022-11-21T18:46:48.398Z,0.90
2022-11-21T18:49:15.568Z,1.00
2022-11-21T18:51:42.737Z,1.00
2022-11-21T18:54:11.320Z,0.80
2022-11-21T18:56:40.232Z,0.80
2022-11-21T18:59:07.516Z,0.60
2022-11-21T19:01:36.261Z,0.70
2022-11-21T19:04:04.696Z,0.50
2022-11-21T19:06:32.157Z,0.40
2022-11-21T19:08:59.420Z,0.50
2022-11-21T19:11:29.492Z,0.30
2022-11-21T19:13:59.716Z,0.10
2022-11-21T19:16:28.700Z,0.10
2022-11-21T19:19:26.449Z,0.00
2022-11-21T19:21:43.458Z,0.00
2022-11-21T19:24:13.642Z,-0.10
2022-11-21T19:26:42.390Z,-0.10
2022-11-21T19:29:10.570Z,0.10
2022-11-21T19:31:44.712Z,0.10
2022-11-21T19:34:17.020Z,0.00
2022-11-21T19:36:45.478Z,0.00
2022-11-21T19:39:14.830Z,0.00
2022-11-21T19:41:42.085Z,0.10
2022-11-21T19:44:09.354Z,0.10
2022-11-21T19:46:38.938Z,0.00
2022-11-21T19:49:08.305Z,0.00
2022-11-21T19:51:41.378Z,0.00
2022-11-21T19:54:13.065Z,-0.10
2022-11-21T19:56:40.534Z,0.00
2022-11-21T19:59:07.684Z,0.00
2022-11-21T20:01:35.597Z,0.00
2022-11-21T20:04:05.660Z,0.10
2022-11-21T20:06:48.355Z,0.10
2022-11-21T20:09:22.537Z,0.00
2022-11-21T20:11:58.433Z,-0.10
2022-11-21T20:14:26.629Z,-0.10
2022-11-21T20:16:54.696Z,-0.10
2022-11-21T20:19:24.838Z,0.10
2022-11-21T20:21:53.688Z,0.00
2022-11-21T20:24:21.795Z,0.00
2022-11-21T20:26:50.411Z,0.00
2022-11-21T20:29:18.384Z,0.00
2022-11-21T20:31:48.503Z,-0.10
2022-11-21T20:34:16.926Z,-0.30
2022-11-21T20:36:47.059Z,-0.40
2022-11-21T20:39:17.037Z,-0.50
2022-11-21T20:41:46.348Z,-0.40
2022-11-21T20:45:20.377Z,-0.50
2022-11-21T20:47:09.316Z,-0.50
2022-11-21T20:49:36.536Z,-0.40
2022-11-21T20:54:51.742Z,-0.60
2022-11-21T20:57:19.720Z,-0.60
2022-11-21T20:59:48.290Z,-0.60
2022-11-21T21:02:16.041Z,-0.60
2022-11-21T21:04:44.309Z,-0.50
2022-11-21T21:07:13.560Z,-0.40
2022-11-21T21:09:41.739Z,-0.40
2022-11-21T21:12:08.956Z,-0.50
2022-11-21T21:14:36.484Z,-0.60
2022-11-21T21:17:04.679Z,-0.70
2022-11-21T21:19:32.712Z,-0.80
2022-11-21T21:22:00.286Z,-0.80
2022-11-21T21:24:29.031Z,-0.80
2022-11-21T21:26:57.480Z,-0.50
2022-11-21T21:29:24.604Z,-0.30
2022-11-21T21:31:53.318Z,-0.20
2022-11-21T21:34:21.816Z,0.00
2022-11-21T21:36:54.832Z,0.10
2022-11-21T21:39:22.179Z,0.10
2022-11-21T21:41:50.396Z,0.20
2022-11-21T21:44:20.127Z,0.30
2022-11-21T21:46:47.476Z,0.30
2022-11-21T21:49:14.789Z,0.40
2022-11-21T21:51:42.398Z,0.40
2022-11-21T21:54:17.662Z,0.40
2022-11-21T21:56:46.881Z,0.40
2022-11-21T21:59:14.896Z,0.50
2022-11-21T22:01:43.136Z,0.70
2022-11-21T22:04:13.100Z,0.80
2022-11-21T22:06:41.490Z,0.90
2022-11-21T22:09:10.231Z,1.00
2022-11-21T22:11:38.660Z,1.00
2022-11-21T22:14:10.521Z,1.10
2022-11-21T22:16:37.879Z,1.10
2022-11-21T22:19:05.089Z,1.10
2022-11-21T22:21:35.844Z,1.10
2022-11-21T22:26:52.989Z,1.20
2022-11-21T22:29:20.130Z,1.20
2022-11-21T22:31:47.391Z,1.30
2022-11-21T22:34:14.691Z,1.30
2022-11-21T22:36:42.284Z,1.30
2022-11-21T22:39:09.644Z,1.30
2022-11-21T22:41:36.825Z,1.30
2022-11-21T22:44:04.481Z,1.30
2022-11-21T22:46:34.812Z,1.40
2022-11-21T22:49:03.752Z,1.50
2022-11-21T22:51:31.025Z,1.50
2022-11-21T22:53:58.237Z,1.50
2022-11-21T22:56:26.863Z,1.50
2022-11-21T22:58:54.312Z,1.50
2022-11-21T23:01:24.199Z,1.60
2022-11-21T23:03:53.234Z,1.60
2022-11-21T23:06:24.045Z,1.60
2022-11-21T23:08:53.050Z,1.60
2022-11-21T23:11:22.999Z,1.70
2022-11-21T23:13:51.677Z,1.70
2022-11-21T23:16:21.425Z,1.70
2022-11-21T23:18:51.627Z,1.70
2022-11-21T23:21:20.641Z,1.70
2022-11-21T23:23:48.251Z,1.70
2022-11-21T23:26:16.511Z,1.80
2022-11-21T23:28:43.693Z,1.90
2022-11-21T23:31:12.898Z,2.00
2022-11-21T23:33:40.106Z,2.10
2022-11-21T23:36:07.377Z,2.00
2022-11-21T23:38:34.687Z,2.10
2022-11-21T23:41:01.941Z,2.10
2022-11-21T23:43:30.193Z,2.20
2022-11-21T23:50:10.203Z,2.40
2022-11-21T23:52:38.583Z,2.50
2022-11-21T23:55:07.434Z,2.50
2022-11-21T23:57:35.703Z,2.60
